Time;durP1;ratioP1;P1;durP2;ratioP2;P2;SDS_P1;SDS_P2;PMS_P1;PMS_P2;Temp;Humidity;BMP_temperature;BMP_pressure;BME280_temperature;BME280_humidity;BME280_pressure;Samples;Min_cycle;Max_cycle;Signal;HPM_P1;HPM_P2
2021/12/10 00:00:30;;;;;;;17.55;11.85;;;5.00;99.90;;;;;;5001448;28;20049;-75
2021/12/10 00:02:56;;;;;;;22.50;12.57;;;5.00;99.90;;;;;;5002162;28;20080;-75
2021/12/10 00:05:30;;;;;;;14.48;10.57;;;5.10;99.90;;;;;;5001812;28;20042;-75
2021/12/10 00:07:57;;;;;;;14.23;10.68;;;5.10;99.90;;;;;;5001819;28;20050;-75
2021/12/10 00:10:28;;;;;;;9.07;8.27;;;5.10;99.90;;;;;;5001893;28;20184;-75
2021/12/10 00:12:54;;;;;;;9.50;7.45;;;5.10;99.90;;;;;;4984512;28;20085;-75
2021/12/10 00:15:24;;;;;;;18.63;12.35;;;5.10;99.90;;;;;;4968132;28;20041;-75
2021/12/10 00:17:52;;;;;;;12.25;10.68;;;5.10;99.90;;;;;;4984907;28;20088;-75
2021/12/10 00:20:19;;;;;;;8.98;7.80;;;5.10;99.90;;;;;;4984732;28;20467;-75
2021/12/10 00:22:56;;;;;;;12.43;10.20;;;5.10;99.90;;;;;;4984746;28;20504;-75
2021/12/10 00:25:25;;;;;;;10.68;8.48;;;5.10;99.90;;;;;;4984071;28;20037;-75
2021/12/10 00:27:53;;;;;;;10.50;9.55;;;5.10;99.90;;;;;;4984759;28;20041;-75
2021/12/10 00:30:27;;;;;;;13.25;11.43;;;5.20;99.90;;;;;;4985630;28;20373;-75
2021/12/10 00:33:20;;;;;;;15.13;9.60;;;5.10;99.90;;;;;;5003604;28;20052;-75
2021/12/10 00:35:46;;;;;;;;;;;5.10;99.90;;;;;;5004674;28;20503;-75
2021/12/10 00:38:11;;;;;;;12.25;11.05;;;5.20;99.90;;;;;;5021403;28;20341;-75
2021/12/10 00:40:37;;;;;;;10.95;9.88;;;5.10;99.90;;;;;;5021219;28;20116;-75
2021/12/10 00:43:03;;;;;;;13.20;8.82;;;5.20;99.90;;;;;;5020177;28;20043;-75
2021/12/10 00:45:29;;;;;;;10.07;8.68;;;5.10;99.90;;;;;;5021354;28;20045;-75
2021/12/10 00:47:55;;;;;;;11.20;9.00;;;5.20;99.90;;;;;;5021174;28;20057;-75
2021/12/10 00:50:28;;;;;;;9.70;8.75;;;5.20;99.90;;;;;;5021206;28;20343;-75
2021/12/10 00:52:54;;;;;;;;;;;5.20;99.90;;;;;;5021633;28;20042;-75
2021/12/10 00:55:21;;;;;;;10.10;9.18;;;5.20;99.90;;;;;;5021793;28;19928;-75
2021/12/10 00:57:47;;;;;;;8.25;7.53;;;5.20;99.90;;;;;;5003605;28;20045;-75
2021/12/10 01:00:20;;;;;;;9.15;8.25;;;5.20;99.90;;;;;;5020537;28;20439;-75
2021/12/10 01:02:46;;;;;;;10.23;8.20;;;5.20;99.90;;;;;;5023195;28;20044;-75
2021/12/10 01:05:14;;;;;;;17.00;9.07;;;5.20;99.90;;;;;;5024799;28;20049;-75
2021/12/10 01:07:41;;;;;;;8.27;7.47;;;5.20;99.90;;;;;;5007329;28;20136;-75
2021/12/10 01:10:16;;;;;;;7.78;6.97;;;5.20;99.90;;;;;;5024454;28;20322;-75
2021/12/10 01:12:49;;;;;;;7.03;6.35;;;5.20;99.90;;;;;;5007245;28;20112;-75
2021/12/10 01:28:48;;;;;;;9.82;7.10;;;5.10;99.90;;;;;;5001173;28;20124;-75
2021/12/10 01:31:15;;;;;;;11.35;6.57;;;5.10;99.90;;;;;;5004396;28;20042;-75
2021/12/10 01:33:42;;;;;;;10.27;9.38;;;5.10;99.90;;;;;;5005314;28;20042;-75
2021/12/10 01:36:08;;;;;;;10.65;8.82;;;5.10;99.90;;;;;;4986949;28;20048;-75
2021/12/10 01:38:41;;;;;;;10.32;9.38;;;5.10;99.90;;;;;;4987670;28;20049;-75
2021/12/10 01:41:10;;;;;;;10.95;7.07;;;5.10;99.90;;;;;;5004171;28;20038;-75
2021/12/10 01:43:39;;;;;;;8.27;7.50;;;5.10;99.90;;;;;;5003768;28;20520;-75
2021/12/10 01:46:13;;;;;;;7.88;7.22;;;5.10;99.90;;;;;;4986824;28;20049;-75
2021/12/10 01:48:47;;;;;;;6.63;6.10;;;5.10;99.90;;;;;;4987426;28;20052;-75
2021/12/10 01:51:16;;;;;;;7.47;6.88;;;5.10;99.90;;;;;;5004000;28;20096;-75
2021/12/10 01:53:44;;;;;;;14.60;9.63;;;5.00;99.90;;;;;;4987237;28;20467;-75
2021/12/10 01:56:17;;;;;;;12.15;9.10;;;5.00;99.90;;;;;;5004327;28;20251;-75
2021/12/10 01:58:44;;;;;;;15.68;9.73;;;5.00;99.90;;;;;;4985943;28;20049;-75
2021/12/10 02:01:15;;;;;;;6.35;5.85;;;5.00;99.90;;;;;;5004247;28;20049;-75
2021/12/10 02:03:41;;;;;;;11.30;6.15;;;5.10;99.90;;;;;;5004352;28;20273;-75
2021/12/10 02:06:08;;;;;;;9.88;8.85;;;5.00;99.90;;;;;;4986014;28;20193;-75
2021/12/10 02:08:35;;;;;;;9.25;7.20;;;5.10;99.90;;;;;;5004043;28;20057;-75
2021/12/10 02:11:01;;;;;;;15.13;7.78;;;5.10;99.90;;;;;;4995673;23;20042;-75
2021/12/10 02:13:28;;;;;;;7.07;6.25;;;5.00;99.90;;;;;;5003685;28;20034;-75
2021/12/10 02:15:54;;;;;;;9.05;6.90;;;5.10;99.90;;;;;;4986478;28;20065;-75
2021/12/10 02:18:21;;;;;;;8.88;7.38;;;5.00;99.90;;;;;;5004843;28;20246;-75
2021/12/10 02:21:01;;;;;;;11.15;7.47;;;5.00;99.90;;;;;;5004330;28;20053;-75
2021/12/10 02:23:29;;;;;;;7.60;6.43;;;5.10;99.90;;;;;;4986541;28;20053;-75
2021/12/10 02:25:55;;;;;;;5.35;4.50;;;5.10;99.90;;;;;;4986131;28;20046;-75
2021/12/10 02:28:21;;;;;;;10.38;7.28;;;5.10;99.90;;;;;;4985915;28;20107;-75
2021/12/10 02:30:48;;;;;;;6.00;5.15;;;5.10;99.90;;;;;;5004203;28;20038;-75
2021/12/10 02:33:14;;;;;;;8.50;6.20;;;5.10;99.90;;;;;;4986123;28;20034;-75
2021/12/10 02:35:40;;;;;;;6.03;5.63;;;5.10;99.90;;;;;;4986528;28;20064;-75
2021/12/10 02:38:07;;;;;;;17.38;6.10;;;5.10;99.90;;;;;;4985933;28;20057;-75
2021/12/10 02:40:35;;;;;;;10.35;6.05;;;5.10;99.90;;;;;;4986098;28;20057;-75
2021/12/10 02:43:06;;;;;;;5.45;4.80;;;5.10;99.90;;;;;;5002526;28;20057;-75
2021/12/10 02:45:31;;;;;;;9.13;6.88;;;5.10;99.90;;;;;;4986261;28;20073;-75
2021/12/10 02:47:57;;;;;;;5.43;4.88;;;5.10;99.90;;;;;;4985661;28;20692;-75
2021/12/10 02:50:27;;;;;;;7.38;6.63;;;5.10;99.90;;;;;;4970056;28;20119;-75
2021/12/10 02:52:53;;;;;;;3.97;3.13;;;5.00;99.90;;;;;;4985831;28;20512;-75
2021/12/10 02:55:20;;;;;;;14.20;6.32;;;5.00;99.90;;;;;;5003859;28;20074;-75
2021/12/10 02:57:50;;;;;;;8.15;5.30;;;5.10;99.90;;;;;;4985399;28;20049;-75
2021/12/10 03:00:21;;;;;;;15.30;4.88;;;5.00;99.90;;;;;;5003240;28;20046;-75
2021/12/10 03:02:46;;;;;;;6.55;5.95;;;5.10;99.90;;;;;;4986127;28;20042;-74
2021/12/10 03:05:12;;;;;;;10.25;5.30;;;5.00;99.90;;;;;;4985495;28;20508;-75
2021/12/10 03:07:40;;;;;;;3.03;2.83;;;5.10;99.90;;;;;;5003027;28;20036;-75
2021/12/10 03:10:09;;;;;;;8.32;5.50;;;5.00;99.90;;;;;;5002862;28;20042;-75
2021/12/10 03:12:35;;;;;;;6.90;5.00;;;5.00;99.90;;;;;;5002217;28;20080;-75
2021/12/10 03:15:01;;;;;;;4.53;4.00;;;5.00;99.90;;;;;;4985487;28;20046;-75
2021/12/10 03:17:29;;;;;;;8.10;6.05;;;5.00;99.90;;;;;;5002914;28;20068;-75
2021/12/10 03:19:56;;;;;;;3.83;3.53;;;5.00;99.90;;;;;;5003039;28;20052;-75
2021/12/10 03:22:23;;;;;;;21.58;4.68;;;5.00;99.90;;;;;;5002940;28;20074;-75
2021/12/10 03:24:52;;;;;;;6.82;5.57;;;5.00;99.90;;;;;;5002763;28;20041;-75
2021/12/10 03:27:21;;;;;;;3.58;3.28;;;5.00;99.90;;;;;;4985674;28;20042;-75
2021/12/10 03:29:49;;;;;;;6.05;5.55;;;5.00;99.90;;;;;;5002278;28;20042;-75
2021/12/10 03:32:22;;;;;;;8.18;5.50;;;5.00;99.90;;;;;;5002786;28;20073;-75
2021/12/10 03:34:49;;;;;;;4.75;3.65;;;5.00;99.90;;;;;;4985617;28;20042;-75
2021/12/10 03:37:18;;;;;;;6.60;5.57;;;4.90;99.90;;;;;;5002401;28;20041;-75
2021/12/10 03:39:46;;;;;;;11.30;5.07;;;4.90;99.90;;;;;;5002659;28;20038;-75
2021/12/10 03:42:13;;;;;;;4.57;4.15;;;4.90;99.90;;;;;;5002200;28;20050;-75
2021/12/10 03:44:38;;;;;;;3.42;3.00;;;4.90;99.90;;;;;;5001779;28;20096;-74
2021/12/10 03:47:07;;;;;;;11.18;4.95;;;4.90;99.90;;;;;;5002631;28;20081;-75
2021/12/10 03:49:35;;;;;;;6.25;5.72;;;4.80;99.90;;;;;;4985043;28;20050;-75
2021/12/10 03:52:00;;;;;;;14.80;6.55;;;4.80;99.90;;;;;;5002362;28;20041;-75
2021/12/10 03:54:27;;;;;;;9.32;5.93;;;4.90;99.90;;;;;;5002436;28;20044;-75
2021/12/10 03:56:53;;;;;;;5.00;4.55;;;4.80;99.90;;;;;;4984312;28;20050;-75
2021/12/10 03:59:20;;;;;;;5.05;4.70;;;4.80;99.90;;;;;;5002256;28;20053;-75
2021/12/10 04:01:49;;;;;;;6.03;5.47;;;4.80;99.90;;;;;;4985282;28;20058;-75
2021/12/10 04:04:19;;;;;;;5.88;5.25;;;4.80;99.90;;;;;;4984982;28;20443;-75
2021/12/10 04:06:45;;;;;;;6.60;4.80;;;4.80;99.90;;;;;;4985023;28;20054;-75
2021/12/10 04:09:11;;;;;;;5.38;4.45;;;4.80;99.90;;;;;;4984214;28;20046;-75
2021/12/10 04:11:37;;;;;;;23.58;6.32;;;4.80;99.90;;;;;;5001994;28;20559;-75
2021/12/10 04:14:05;;;;;;;8.57;4.60;;;4.70;99.90;;;;;;5001144;28;20093;-75
2021/12/10 04:16:31;;;;;;;20.00;6.18;;;4.70;99.90;;;;;;5002253;28;20554;-75
2021/12/10 04:19:00;;;;;;;6.63;4.95;;;4.70;99.90;;;;;;4984171;28;20081;-75
2021/12/10 04:21:26;;;;;;;4.35;4.03;;;4.70;99.90;;;;;;5002152;28;20161;-75
2021/12/10 04:23:52;;;;;;;4.63;4.32;;;4.70;99.90;;;;;;5001483;28;20167;-75
2021/12/10 04:26:20;;;;;;;11.25;4.55;;;4.60;99.90;;;;;;4984827;28;20121;-75
2021/12/10 04:28:47;;;;;;;6.50;4.05;;;4.60;99.90;;;;;;5001652;28;20034;-75
2021/12/10 04:31:14;;;;;;;14.60;7.05;;;4.60;99.90;;;;;;5001524;28;20053;-75
2021/12/10 04:33:39;;;;;;;6.80;4.82;;;4.50;99.90;;;;;;5001948;28;20487;-74
2021/12/10 04:36:07;;;;;;;5.93;4.68;;;4.50;99.90;;;;;;5001839;28;20051;-75
2021/12/10 04:38:34;;;;;;;5.18;4.70;;;4.50;99.90;;;;;;5004868;28;20408;-74
2021/12/10 04:41:04;;;;;;;5.28;4.78;;;4.50;99.90;;;;;;5005819;28;20048;-75
2021/12/10 04:43:31;;;;;;;3.88;3.42;;;4.50;99.90;;;;;;5004869;28;20042;-75
2021/12/10 04:45:59;;;;;;;5.72;5.15;;;4.50;99.90;;;;;;4988395;28;20400;-75
2021/12/10 04:48:26;;;;;;;4.95;4.55;;;4.40;99.90;;;;;;4988242;28;20109;-75
2021/12/10 04:50:52;;;;;;;5.80;4.95;;;4.40;99.90;;;;;;5005463;28;20140;-75
2021/12/10 04:53:18;;;;;;;6.05;3.97;;;4.40;99.90;;;;;;5005941;28;20046;-75
2021/12/10 04:55:44;;;;;;;6.10;5.60;;;4.40;99.90;;;;;;5005541;28;20165;-75
2021/12/10 04:58:10;;;;;;;4.45;4.13;;;4.40;99.90;;;;;;5004597;28;20089;-75
2021/12/10 05:00:49;;;;;;;11.43;5.13;;;4.30;99.90;;;;;;4987933;28;20056;-75
2021/12/10 05:03:16;;;;;;;4.18;3.90;;;4.30;99.90;;;;;;5005306;28;20708;-75
2021/12/10 05:05:42;;;;;;;5.18;3.42;;;4.30;99.90;;;;;;5005330;28;20046;-75
2021/12/10 05:08:09;;;;;;;11.80;4.50;;;4.30;99.90;;;;;;4987608;28;20077;-75
2021/12/10 05:10:35;;;;;;;10.93;5.43;;;4.30;99.90;;;;;;4987350;28;20065;-75
2021/12/10 05:13:00;;;;;;;3.95;3.28;;;4.30;99.90;;;;;;4983335;28;20120;-75
2021/12/10 05:15:29;;;;;;;7.43;4.82;;;4.20;99.90;;;;;;4986057;28;20440;-75
2021/12/10 05:17:55;;;;;;;14.35;3.67;;;4.20;99.90;;;;;;4985275;28;20042;-75
2021/12/10 05:20:48;;;;;;;5.35;4.15;;;4.20;99.90;;;;;;4985805;28;20077;-75
2021/12/10 05:23:17;;;;;;;5.32;4.82;;;4.10;99.90;;;;;;4984146;28;20043;-75
2021/12/10 05:25:43;;;;;;;6.45;4.28;;;4.10;99.90;;;;;;4985440;28;20047;-75
2021/12/10 05:28:10;;;;;;;5.45;4.75;;;4.10;99.90;;;;;;4983192;28;20128;-75
2021/12/10 05:30:36;;;;;;;5.10;3.40;;;4.00;99.90;;;;;;4985596;28;20100;-75
2021/12/10 05:33:03;;;;;;;7.10;5.55;;;4.00;99.90;;;;;;4985349;28;20034;-75
2021/12/10 05:35:32;;;;;;;5.93;4.57;;;4.00;99.90;;;;;;4985815;28;20101;-75
2021/12/10 05:37:59;;;;;;;4.83;4.43;;;4.00;99.90;;;;;;4985159;28;20039;-75
2021/12/10 05:40:26;;;;;;;4.63;4.22;;;4.00;99.90;;;;;;4985695;28;20050;-75
2021/12/10 05:42:52;;;;;;;6.22;5.20;;;4.00;99.90;;;;;;4984408;28;20104;-75
2021/12/10 05:45:20;;;;;;;6.22;3.38;;;3.90;99.90;;;;;;4985456;28;20050;-74
2021/12/10 05:47:47;;;;;;;5.00;3.30;;;3.90;99.90;;;;;;4984114;28;20082;-75
2021/12/10 05:50:15;;;;;;;3.97;3.45;;;3.90;99.90;;;;;;4984694;28;20042;-75
2021/12/10 05:52:41;;;;;;;5.55;5.13;;;3.90;99.90;;;;;;4985335;28;20112;-75
2021/12/10 05:55:07;;;;;;;11.20;5.23;;;3.90;99.90;;;;;;4983484;28;20042;-75
2021/12/10 05:57:33;;;;;;;9.48;5.45;;;3.90;99.90;;;;;;4983284;28;20365;-75
2021/12/10 05:59:59;;;;;;;6.45;5.18;;;3.90;99.90;;;;;;4984738;28;20049;-76
2021/12/10 06:02:24;;;;;;;4.68;4.38;;;3.90;99.90;;;;;;4985015;28;20042;-76
2021/12/10 06:04:50;;;;;;;9.85;5.20;;;3.80;99.90;;;;;;4985452;28;20101;-75
2021/12/10 06:07:16;;;;;;;6.50;5.43;;;3.80;99.90;;;;;;4985351;28;20042;-75
2021/12/10 06:09:41;;;;;;;6.90;6.00;;;3.80;99.90;;;;;;4984766;28;20042;-75
2021/12/10 06:12:07;;;;;;;6.75;4.97;;;3.80;99.90;;;;;;4982369;28;20097;-76
2021/12/10 06:14:33;;;;;;;14.27;6.93;;;3.80;99.90;;;;;;4983255;28;20047;-76
2021/12/10 06:16:59;;;;;;;6.85;5.50;;;3.80;99.90;;;;;;4984600;28;20073;-76
2021/12/10 06:19:24;;;;;;;11.00;4.23;;;3.80;99.90;;;;;;4984427;28;20103;-76
2021/12/10 06:21:52;;;;;;;6.67;6.17;;;3.80;99.90;;;;;;4985012;28;20120;-75
2021/12/10 06:24:17;;;;;;;7.53;6.93;;;3.80;99.90;;;;;;4983221;28;20043;-76
2021/12/10 06:26:43;;;;;;;5.57;5.27;;;3.80;99.90;;;;;;4983988;28;20547;-75
2021/12/10 06:29:09;;;;;;;14.17;6.53;;;3.80;99.90;;;;;;4984540;28;20129;-76
2021/12/10 06:31:35;;;;;;;5.00;4.53;;;3.80;99.90;;;;;;4965268;28;20094;-76
2021/12/10 06:34:01;;;;;;;6.27;5.33;;;3.80;99.90;;;;;;4994169;28;20069;-76
2021/12/10 06:36:29;;;;;;;9.00;7.20;;;3.80;99.90;;;;;;5004248;28;20104;-76
2021/12/10 06:38:55;;;;;;;5.90;5.50;;;3.80;99.90;;;;;;5003717;28;20073;-75
2021/12/10 06:41:21;;;;;;;6.63;5.37;;;3.80;99.90;;;;;;5004254;28;20523;-76
2021/12/10 06:43:47;;;;;;;5.27;4.90;;;3.90;99.90;;;;;;5003609;28;20069;-76
2021/12/10 06:46:14;;;;;;;7.13;6.50;;;3.90;99.90;;;;;;4972756;28;20071;-77
2021/12/10 06:48:40;;;;;;;7.25;5.63;;;3.90;99.90;;;;;;4963821;28;20266;-77
2021/12/10 06:51:18;;;;;;;8.88;5.82;;;3.90;99.90;;;;;;4963272;28;20054;-77
2021/12/10 06:53:46;;;;;;;5.13;4.50;;;3.90;99.90;;;;;;4980510;28;20050;-77
2021/12/10 06:56:14;;;;;;;7.53;5.83;;;3.90;99.90;;;;;;4983822;28;20034;-77
2021/12/10 06:58:42;;;;;;;8.97;8.07;;;3.90;99.90;;;;;;4975863;28;20044;-77
2021/12/10 07:01:13;;;;;;;5.83;5.23;;;4.00;99.90;;;;;;4998386;28;20077;-78
2021/12/10 07:03:40;;;;;;;7.17;6.60;;;4.00;99.90;;;;;;4989763;28;20050;-77
2021/12/10 07:06:08;;;;;;;7.07;6.37;;;4.00;99.90;;;;;;4982446;28;20058;-77
2021/12/10 07:08:36;;;;;;;17.33;4.82;;;4.00;99.90;;;;;;4979010;28;20069;-79
2021/12/10 07:11:02;;;;;;;6.70;6.00;;;4.00;99.90;;;;;;4983917;28;20034;-81
2021/12/10 07:13:31;;;;;;;8.27;5.83;;;4.00;99.90;;;;;;5002322;28;20108;-81
2021/12/10 07:15:57;;;;;;;8.27;5.05;;;4.00;99.90;;;;;;4985002;28;20536;-84
2021/12/10 07:18:23;;;;;;;7.87;5.67;;;3.90;99.90;;;;;;5004335;28;20121;-76
2021/12/10 07:20:50;;;;;;;7.23;6.13;;;3.90;99.90;;;;;;5022764;28;20044;-75
2021/12/10 07:23:16;;;;;;;4.93;4.53;;;3.90;99.90;;;;;;4996436;28;20100;-75
2021/12/10 07:25:42;;;;;;;7.10;6.43;;;3.90;99.90;;;;;;4984363;28;20045;-75
2021/12/10 07:28:07;;;;;;;8.18;6.35;;;3.90;99.90;;;;;;5000980;28;20050;-75
2021/12/10 07:30:34;;;;;;;8.00;5.13;;;3.80;99.90;;;;;;4984053;28;20041;-74
2021/12/10 07:33:00;;;;;;;7.43;6.83;;;3.90;99.90;;;;;;4999472;28;20080;-80
2021/12/10 07:35:25;;;;;;;22.97;5.87;;;3.90;99.90;;;;;;4981460;28;20340;-76
2021/12/10 07:37:52;;;;;;;6.80;5.70;;;3.80;99.90;;;;;;4981442;28;20542;-76
2021/12/10 07:40:21;;;;;;;6.17;5.67;;;3.80;99.90;;;;;;4983131;28;20104;-76
2021/12/10 07:42:47;;;;;;;7.27;6.73;;;3.90;99.90;;;;;;5001097;28;20104;-76
2021/12/10 07:45:13;;;;;;;5.87;5.30;;;3.90;99.90;;;;;;5001463;28;20030;-75
2021/12/10 07:47:39;;;;;;;8.53;5.70;;;3.80;99.90;;;;;;4976862;28;20065;-82
2021/12/10 07:50:12;;;;;;;5.87;5.47;;;3.80;99.90;;;;;;4981458;28;20054;-81
2021/12/10 07:52:40;;;;;;;6.87;5.47;;;3.80;99.90;;;;;;4982194;28;20484;-82
2021/12/10 07:55:09;;;;;;;5.03;4.70;;;3.80;99.90;;;;;;5000672;28;20034;-77
2021/12/10 07:57:35;;;;;;;7.87;6.17;;;3.80;99.90;;;;;;4976272;28;20385;-77
2021/12/10 08:00:03;;;;;;;6.13;3.67;;;3.80;99.90;;;;;;5000184;28;20025;-76
2021/12/10 08:02:28;;;;;;;5.23;4.73;;;3.80;99.90;;;;;;4989415;28;20053;-76
2021/12/10 08:04:54;;;;;;;6.80;5.27;;;3.80;99.90;;;;;;4983384;28;20524;-76
2021/12/10 08:07:19;;;;;;;5.87;5.47;;;3.80;99.90;;;;;;5001559;28;20041;-76
2021/12/10 08:09:45;;;;;;;6.87;6.23;;;3.70;99.90;;;;;;4983932;28;20060;-75
2021/12/10 08:12:11;;;;;;;6.73;6.03;;;3.70;99.90;;;;;;4988931;28;20118;-76
2021/12/10 08:14:37;;;;;;;8.37;3.53;;;3.70;99.90;;;;;;4994056;28;20046;-76
2021/12/10 08:17:04;;;;;;;4.77;4.37;;;3.70;99.90;;;;;;5001255;28;20042;-75
2021/12/10 08:19:30;;;;;;;7.77;6.93;;;3.80;99.90;;;;;;5001836;28;20092;-75
2021/12/10 08:21:56;;;;;;;9.00;5.80;;;3.70;99.90;;;;;;5000644;28;20135;-76
2021/12/10 08:24:22;;;;;;;4.97;4.20;;;3.70;99.90;;;;;;4999950;28;20042;-77
2021/12/10 08:26:48;;;;;;;6.93;4.57;;;3.70;99.90;;;;;;4983214;28;20373;-76
2021/12/10 08:29:16;;;;;;;5.60;4.70;;;3.70;99.90;;;;;;5000908;28;20368;-76
2021/12/10 08:31:42;;;;;;;6.07;5.43;;;3.80;99.90;;;;;;4992818;28;20412;-76
2021/12/10 08:34:08;;;;;;;12.97;3.40;;;3.70;99.90;;;;;;5000504;28;20131;-76
2021/12/10 08:36:35;;;;;;;4.07;3.77;;;3.80;99.90;;;;;;4982172;28;20077;-76
2021/12/10 08:39:03;;;;;;;5.27;4.23;;;3.70;99.90;;;;;;5000471;28;20060;-76
2021/12/10 08:41:32;;;;;;;4.67;4.37;;;3.70;99.90;;;;;;5000822;28;20808;-76
2021/12/10 08:43:58;;;;;;;4.47;4.17;;;3.70;99.90;;;;;;4983359;28;20568;-76
2021/12/10 08:46:26;;;;;;;3.73;2.90;;;3.70;99.90;;;;;;5000918;28;20382;-76
2021/12/10 08:48:53;;;;;;;4.53;3.37;;;3.70;99.90;;;;;;5000872;28;20042;-76
2021/12/10 08:51:24;;;;;;;5.67;5.23;;;3.70;99.90;;;;;;5001645;28;20046;-76
2021/12/10 08:53:50;;;;;;;3.37;3.03;;;3.70;99.90;;;;;;5001658;28;20042;-76
2021/12/10 08:56:16;;;;;;;4.10;3.87;;;3.70;99.90;;;;;;4983937;28;20400;-76
2021/12/10 08:58:42;;;;;;;3.23;2.67;;;3.80;99.90;;;;;;5000420;28;20393;-76
2021/12/10 09:01:11;;;;;;;5.10;4.70;;;3.80;99.90;;;;;;4982282;28;20117;-76
2021/12/10 09:03:37;;;;;;;3.73;3.37;;;3.80;99.90;;;;;;4983071;28;20046;-76
2021/12/10 09:06:05;;;;;;;5.23;4.73;;;3.70;99.90;;;;;;4982948;28;20030;-76
2021/12/10 09:08:31;;;;;;;2.47;2.37;;;3.80;99.90;;;;;;5001152;28;20046;-76
2021/12/10 09:10:56;;;;;;;4.20;3.90;;;3.70;99.90;;;;;;5000595;28;20071;-76
2021/12/10 09:13:24;;;;;;;4.53;3.83;;;3.70;99.90;;;;;;5000064;28;20038;-76
2021/12/10 09:15:55;;;;;;;3.13;2.93;;;3.70;99.90;;;;;;5001563;28;20133;-76
2021/12/10 09:18:21;;;;;;;3.83;3.43;;;3.60;99.90;;;;;;4982841;28;20057;-76
2021/12/10 09:20:50;;;;;;;5.07;4.47;;;3.60;99.90;;;;;;5001100;28;20046;-75
2021/12/10 09:23:21;;;;;;;4.80;3.87;;;3.60;99.90;;;;;;5001757;28;20492;-76
2021/12/10 09:25:48;;;;;;;4.23;3.83;;;3.60;99.90;;;;;;5005184;28;20447;-76
2021/12/10 09:28:14;;;;;;;4.47;2.63;;;3.60;99.90;;;;;;5003295;28;20049;-76
2021/12/10 09:30:43;;;;;;;9.53;3.87;;;3.70;99.90;;;;;;5003141;28;20046;-76
2021/12/10 09:33:09;;;;;;;2.63;2.43;;;3.70;99.90;;;;;;4985401;28;20570;-76
2021/12/10 09:35:36;;;;;;;3.40;3.10;;;3.70;99.90;;;;;;5004897;28;20104;-76
2021/12/10 09:38:04;;;;;;;4.03;3.73;;;3.70;99.90;;;;;;5004179;28;20041;-76
2021/12/10 09:40:35;;;;;;;3.30;3.03;;;3.70;99.90;;;;;;4986841;28;20060;-76
2021/12/10 09:43:03;;;;;;;6.80;4.70;;;3.70;99.90;;;;;;5003111;28;20089;-76
2021/12/10 09:45:35;;;;;;;3.07;2.83;;;3.70;99.90;;;;;;4986578;28;20050;-76
2021/12/10 09:48:02;;;;;;;3.03;2.83;;;3.70;99.90;;;;;;5003696;28;20064;-76
2021/12/10 09:50:30;;;;;;;5.03;3.47;;;3.70;99.90;;;;;;4985592;28;20034;-76
2021/12/10 09:52:56;;;;;;;2.73;2.50;;;3.70;99.90;;;;;;4985651;28;20038;-76
2021/12/10 09:55:23;;;;;;;2.93;2.73;;;3.70;99.90;;;;;;5003068;28;20117;-77
2021/12/10 09:57:51;;;;;;;5.10;2.83;;;3.80;99.90;;;;;;5003416;28;20445;-76
2021/12/10 10:00:20;;;;;;;14.97;3.70;;;3.70;99.90;;;;;;4986727;28;20057;-76
2021/12/10 10:02:46;;;;;;;5.57;3.23;;;3.70;99.90;;;;;;4986847;28;20072;-76
2021/12/10 10:05:12;;;;;;;2.67;2.47;;;3.80;99.90;;;;;;5003670;28;20072;-76
2021/12/10 10:07:38;;;;;;;1.83;1.73;;;3.80;99.90;;;;;;5003308;28;20477;-76
2021/12/10 10:10:12;;;;;;;3.70;3.10;;;3.80;99.90;;;;;;5003143;28;20049;-76
2021/12/10 10:12:43;;;;;;;3.70;3.40;;;3.80;99.90;;;;;;4984537;28;20459;-76
2021/12/10 10:15:22;;;;;;;3.60;3.13;;;3.80;99.90;;;;;;4985595;28;20042;-76
2021/12/10 10:17:48;;;;;;;2.47;1.90;;;3.90;99.90;;;;;;4985706;28;20042;-76
2021/12/10 10:20:17;;;;;;;2.00;1.90;;;3.90;99.90;;;;;;4985046;28;20041;-76
2021/12/10 10:22:44;;;;;;;5.93;2.97;;;3.90;99.90;;;;;;4985764;28;20053;-76
2021/12/10 10:25:11;;;;;;;4.30;3.90;;;3.90;99.90;;;;;;5002998;28;20037;-76
2021/12/10 10:27:40;;;;;;;4.50;2.93;;;3.90;99.90;;;;;;5002617;28;20443;-76
2021/12/10 10:30:12;;;;;;;3.70;2.60;;;3.90;99.90;;;;;;5002800;28;20129;-76
2021/12/10 10:32:43;;;;;;;3.70;2.67;;;3.90;99.90;;;;;;4985239;28;20456;-76
2021/12/10 10:35:13;;;;;;;2.07;1.70;;;3.90;99.90;;;;;;5003006;28;20052;-76
2021/12/10 10:37:39;;;;;;;3.70;2.25;;;3.90;99.90;;;;;;5003278;28;20587;-76
2021/12/10 10:40:07;;;;;;;11.63;2.33;;;4.00;99.90;;;;;;5003000;28;20129;-76
2021/12/10 10:42:33;;;;;;;3.92;2.78;;;4.00;99.90;;;;;;4984092;28;20065;-76
2021/12/10 10:45:04;;;;;;;1.87;1.77;;;4.00;99.90;;;;;;4984947;28;20046;-76
2021/12/10 10:47:30;;;;;;;4.87;3.90;;;4.00;99.90;;;;;;4985412;28;20414;-76
2021/12/10 10:50:12;;;;;;;3.17;2.87;;;4.00;99.90;;;;;;4985468;28;20330;-76
2021/12/10 10:52:41;;;;;;;2.03;1.92;;;4.00;99.90;;;;;;4984366;28;20052;-76
2021/12/10 10:55:14;;;;;;;2.17;1.97;;;4.00;99.90;;;;;;5001706;28;20053;-76
2021/12/10 10:57:53;;;;;;;13.23;2.20;;;4.00;99.90;;;;;;5001523;28;20112;-76
2021/12/10 11:00:51;;;;;;;15.63;3.33;;;4.10;99.90;;;;;;4985868;28;20504;-76
2021/12/10 11:03:23;;;;;;;2.33;2.03;;;4.10;99.90;;;;;;4985614;28;20057;-76
2021/12/10 11:05:52;;;;;;;1.70;1.60;;;4.10;99.90;;;;;;4984820;28;20240;-76
2021/12/10 11:08:46;;;;;;;3.03;2.13;;;4.10;99.90;;;;;;4969147;28;20511;-76
2021/12/10 11:11:21;;;;;;;2.97;2.67;;;4.10;99.90;;;;;;4983187;28;20204;-76
2021/12/10 11:14:02;;;;;;;2.47;2.27;;;4.10;99.90;;;;;;5002931;28;20042;-76
2021/12/10 11:16:30;;;;;;;1.77;1.67;;;4.10;99.90;;;;;;4962322;28;20034;-76
2021/12/10 11:19:03;;;;;;;9.10;4.00;;;4.10;99.90;;;;;;5002224;28;20034;-76
2021/12/10 11:21:56;;;;;;;3.27;1.67;;;4.20;99.90;;;;;;4999701;28;20065;-76
2021/12/10 11:24:25;;;;;;;4.80;2.22;;;4.20;99.90;;;;;;4996466;28;20038;-78
2021/12/10 11:26:52;;;;;;;3.67;2.33;;;4.20;99.90;;;;;;4982758;28;20080;-82
2021/12/10 11:29:48;;;;;;;2.53;2.33;;;4.20;99.90;;;;;;5008207;28;20077;-79
2021/12/10 11:32:33;;;;;;;2.67;2.47;;;4.20;99.90;;;;;;4981036;28;20172;-78
2021/12/10 11:35:06;;;;;;;6.23;3.40;;;4.20;99.90;;;;;;4982188;28;20068;-82
2021/12/10 11:37:55;;;;;;;3.03;2.85;;;4.30;99.90;;;;;;5002711;28;20072;-77
2021/12/10 11:40:35;;;;;;;3.80;2.43;;;4.20;99.90;;;;;;5002128;28;20046;-78
2021/12/10 11:46:31;;;;;;;3.67;3.37;;;4.30;99.90;;;;;;4982542;28;20104;-78
2021/12/10 11:49:11;;;;;;;1.65;1.65;;;4.30;99.90;;;;;;5020479;28;20052;-79
2021/12/10 11:51:41;;;;;;;2.40;1.67;;;4.30;99.90;;;;;;5004980;28;20045;-78
2021/12/10 11:54:22;;;;;;;2.13;2.03;;;4.40;99.90;;;;;;4987864;28;20083;-78
2021/12/10 11:56:54;;;;;;;2.78;2.05;;;4.30;99.90;;;;;;4995367;28;20034;-77
2021/12/10 11:59:27;;;;;;;2.73;2.50;;;4.40;99.90;;;;;;4968438;28;20037;-82
2021/12/10 12:01:59;;;;;;;2.53;2.33;;;4.40;99.90;;;;;;5001847;28;20054;-79
2021/12/10 12:04:31;;;;;;;3.05;2.83;;;4.40;99.90;;;;;;4989405;28;20121;-79
2021/12/10 12:07:14;;;;;;;;;;;4.40;99.90;;;;;;4985060;28;20441;-78
2021/12/10 12:09:42;;;;;;;5.07;1.77;;;4.40;99.90;;;;;;5006595;28;19956;-82
2021/12/10 12:12:19;;;;;;;2.60;1.90;;;4.40;99.90;;;;;;5007447;28;20057;-76
2021/12/10 12:14:52;;;;;;;2.83;2.30;;;4.40;99.90;;;;;;5012824;28;20046;-76
2021/12/10 12:17:44;;;;;;;2.63;2.43;;;4.40;99.90;;;;;;4985050;28;20266;-85
2021/12/10 12:20:31;;;;;;;2.60;1.45;;;4.40;99.90;;;;;;4986232;28;20136;-89
2021/12/10 12:25:42;;;;;;;2.67;2.47;;;4.40;99.90;;;;;;5001004;28;20145;-88
2021/12/10 12:28:11;;;;;;;1.77;1.67;;;4.40;99.90;;;;;;4996134;28;20095;-84
2021/12/10 12:31:06;;;;;;;1.98;1.55;;;4.40;99.90;;;;;;5000584;28;20049;-83
2021/12/10 12:33:57;;;;;;;2.60;2.40;;;4.40;99.90;;;;;;4968295;28;20088;-86
2021/12/10 12:36:31;;;;;;;2.40;2.20;;;4.50;99.90;;;;;;5002384;28;20108;-84
2021/12/10 12:38:57;;;;;;;1.83;1.73;;;4.50;99.90;;;;;;5002244;28;20046;-86
2021/12/10 12:41:33;;;;;;;6.40;2.22;;;4.40;99.90;;;;;;5000322;28;20034;-87
2021/12/10 12:44:34;;;;;;;3.30;1.67;;;4.50;99.90;;;;;;5001484;28;20042;-87
2021/12/10 12:47:16;;;;;;;1.47;1.37;;;4.50;99.90;;;;;;5001033;28;20046;-80
2021/12/10 12:49:48;;;;;;;1.70;1.27;;;4.50;99.90;;;;;;5001971;28;20045;-78
2021/12/10 12:52:24;;;;;;;2.17;2.03;;;4.50;99.90;;;;;;5000457;28;20054;-76
2021/12/10 12:55:04;;;;;;;2.13;2.03;;;4.50;99.90;;;;;;4991009;28;20280;-77
2021/12/10 12:58:11;;;;;;;2.63;1.50;;;4.50;99.90;;;;;;4981949;28;20046;-76
2021/12/10 13:00:43;;;;;;;2.25;2.15;;;4.50;99.90;;;;;;4975841;28;20046;-75
2021/12/10 13:03:13;;;;;;;1.58;1.48;;;4.50;99.90;;;;;;4987742;28;20217;-76
2021/12/10 13:05:52;;;;;;;9.68;4.10;;;4.50;99.90;;;;;;4987449;28;20046;-75
2021/12/10 13:08:24;;;;;;;2.77;1.97;;;4.50;99.90;;;;;;5007329;28;20115;-81
2021/12/10 13:11:09;;;;;;;1.13;1.10;;;4.50;99.90;;;;;;5000636;28;20146;-80
2021/12/10 13:13:50;;;;;;;1.48;1.38;;;4.50;99.90;;;;;;4985109;28;20050;-78
2021/12/10 13:16:44;;;;;;;2.30;2.20;;;4.50;99.90;;;;;;4984017;28;20050;-84
2021/12/10 13:19:15;;;;;;;2.15;1.95;;;4.50;99.90;;;;;;4986899;28;20059;-78
2021/12/10 13:21:43;;;;;;;4.83;2.50;;;4.50;99.90;;;;;;4983539;28;20052;-78
2021/12/10 13:24:10;;;;;;;5.22;4.72;;;4.50;99.90;;;;;;5003313;28;20117;-78
2021/12/10 13:26:36;;;;;;;2.83;2.63;;;4.50;99.90;;;;;;4984683;28;20042;-78